UTA112 USSS-USRR
Flight info
| Callsign | UTA112 |
|---|---|
| Flight time | 1h 12m |
| Altitude | 39000 |
| Route | DOSUM6J DOSUM L992 NAMOL T376 UTORA A925 HMN L870 STELA KOVER1L |
| Aircraft | B738/M-SDE2E3FGHIRWXY/LB1 |
Departure
| Time | 2026-05-08 15:17 |
|---|---|
| Airport | Koltsovo Airport (USSS) |
Arrival
| Time | 2026-05-08 16:29 |
|---|---|
| Airport | Surgut International Airport (USRR) |
| Time | Latitude | Longitude | Altitude | Speed | Heading |
|---|---|---|---|---|---|
| 2026-05-08 14:41 | 56.74932 | 60.80134 | 775 ft | 0 kts | 360° |
| 2026-05-08 15:00 | 56.74928 | 60.80134 | 776 ft | 4 kts | 359° |
| 2026-05-08 15:01 | 56.74901 | 60.80135 | 776 ft | 4 kts | 360° |
| 2026-05-08 15:01 | 56.74875 | 60.80141 | 776 ft | 4 kts | 335° |
| 2026-05-08 15:01 | 56.74854 | 60.80168 | 776 ft | 4 kts | 309° |
| 2026-05-08 15:01 | 56.74849 | 60.80178 | 776 ft | 0 kts | 305° |
| 2026-05-08 15:06 | 56.74851 | 60.80172 | 776 ft | 2 kts | 298° |
| 2026-05-08 15:07 | 56.74854 | 60.80092 | 776 ft | 8 kts | 270° |
| 2026-05-08 15:07 | 56.74854 | 60.79974 | 776 ft | 10 kts | 270° |
| 2026-05-08 15:07 | 56.74854 | 60.79841 | 776 ft | 11 kts | 270° |
| 2026-05-08 15:07 | 56.74855 | 60.79681 | 776 ft | 15 kts | 275° |
| 2026-05-08 15:08 | 56.74857 | 60.79464 | 776 ft | 18 kts | 270° |
| 2026-05-08 15:08 | 56.74857 | 60.79233 | 776 ft | 18 kts | 270° |
| 2026-05-08 15:08 | 56.74857 | 60.79003 | 776 ft | 18 kts | 270° |
| 2026-05-08 15:08 | 56.74855 | 60.78781 | 776 ft | 17 kts | 270° |
| 2026-05-08 15:09 | 56.74855 | 60.78567 | 777 ft | 17 kts | 270° |
| 2026-05-08 15:09 | 56.74855 | 60.78361 | 777 ft | 16 kts | 270° |
| 2026-05-08 15:09 | 56.74856 | 60.78211 | 777 ft | 11 kts | 266° |
| 2026-05-08 15:09 | 56.74792 | 60.78149 | 777 ft | 12 kts | 179° |
| 2026-05-08 15:10 | 56.74771 | 60.78148 | 777 ft | 1 kts | 180° |
| 2026-05-08 15:10 | 56.74757 | 60.78148 | 777 ft | 2 kts | 180° |
| 2026-05-08 15:10 | 56.74753 | 60.78148 | 777 ft | 0 kts | 180° |
| 2026-05-08 15:13 | 56.74747 | 60.78148 | 777 ft | 2 kts | 180° |
| 2026-05-08 15:13 | 56.74718 | 60.78148 | 777 ft | 6 kts | 180° |
| 2026-05-08 15:13 | 56.74670 | 60.78149 | 777 ft | 7 kts | 180° |
| 2026-05-08 15:14 | 56.74617 | 60.78148 | 777 ft | 8 kts | 180° |
| 2026-05-08 15:14 | 56.74555 | 60.78147 | 777 ft | 10 kts | 180° |
| 2026-05-08 15:14 | 56.74495 | 60.78148 | 777 ft | 7 kts | 170° |
| 2026-05-08 15:14 | 56.74479 | 60.78204 | 777 ft | 5 kts | 89° |
| 2026-05-08 15:15 | 56.74479 | 60.78227 | 777 ft | 0 kts | 90° |
| 2026-05-08 15:16 | 56.74479 | 60.78233 | 777 ft | 0 kts | 90° |
| 2026-05-08 15:16 | 56.74479 | 60.78234 | 777 ft | 0 kts | 90° |
| 2026-05-08 15:16 | 56.74479 | 60.78390 | 776 ft | 39 kts | 90° |
| 2026-05-08 15:16 | 56.74477 | 60.79334 | 776 ft | 107 kts | 90° |
| 2026-05-08 15:17 | 56.74474 | 60.81044 | 793 ft | 159 kts | 90° |
| 2026-05-08 15:17 | 56.74450 | 60.83133 | 1324 ft | 170 kts | 92° |
| 2026-05-08 15:17 | 56.74446 | 60.85339 | 1981 ft | 177 kts | 84° |
| 2026-05-08 15:17 | 56.74996 | 60.87336 | 2730 ft | 188 kts | 47° |
| 2026-05-08 15:18 | 56.76127 | 60.88816 | 3212 ft | 215 kts | 35° |
| 2026-05-08 15:18 | 56.77413 | 60.90363 | 3825 ft | 228 kts | 34° |
| 2026-05-08 15:18 | 56.78810 | 60.92022 | 4256 ft | 250 kts | 31° |
| 2026-05-08 15:18 | 56.80368 | 60.93697 | 4761 ft | 271 kts | 27° |
| 2026-05-08 15:19 | 56.82059 | 60.95312 | 5651 ft | 276 kts | 25° |
| 2026-05-08 15:19 | 56.83783 | 60.96896 | 6659 ft | 278 kts | 24° |
| 2026-05-08 15:19 | 56.85521 | 60.98494 | 7614 ft | 282 kts | 25° |
| 2026-05-08 15:19 | 56.87282 | 61.00124 | 8565 ft | 286 kts | 25° |
| 2026-05-08 15:20 | 56.89066 | 61.01789 | 9530 ft | 289 kts | 25° |
| 2026-05-08 15:20 | 56.90845 | 61.03460 | 10342 ft | 296 kts | 25° |
| 2026-05-08 15:20 | 56.92739 | 61.05245 | 10752 ft | 317 kts | 26° |
| 2026-05-08 15:20 | 56.94781 | 61.07175 | 10850 ft | 341 kts | 26° |
| 2026-05-08 15:21 | 56.96904 | 61.09191 | 10902 ft | 349 kts | 26° |
| 2026-05-08 15:21 | 56.99068 | 61.11255 | 11709 ft | 351 kts | 26° |
| 2026-05-08 15:21 | 57.01228 | 61.13319 | 12699 ft | 351 kts | 26° |
| 2026-05-08 15:21 | 57.03414 | 61.15413 | 13476 ft | 358 kts | 25° |
| 2026-05-08 15:22 | 57.05639 | 61.17544 | 14246 ft | 362 kts | 25° |
| 2026-05-08 15:22 | 57.07882 | 61.19694 | 15027 ft | 365 kts | 25° |
| 2026-05-08 15:22 | 57.10118 | 61.21841 | 15752 ft | 370 kts | 25° |
| 2026-05-08 15:22 | 57.12410 | 61.24045 | 16482 ft | 375 kts | 25° |
| 2026-05-08 15:23 | 57.14745 | 61.26294 | 17120 ft | 382 kts | 25° |
| 2026-05-08 15:23 | 57.17118 | 61.28581 | 17850 ft | 386 kts | 25° |
| 2026-05-08 15:23 | 57.19511 | 61.30893 | 18530 ft | 390 kts | 25° |
| 2026-05-08 15:23 | 57.21923 | 61.33227 | 19173 ft | 393 kts | 25° |
| 2026-05-08 15:24 | 57.24355 | 61.35583 | 19817 ft | 397 kts | 25° |
| 2026-05-08 15:24 | 57.26811 | 61.37965 | 20445 ft | 400 kts | 25° |
| 2026-05-08 15:24 | 57.29285 | 61.40385 | 21065 ft | 404 kts | 26° |
| 2026-05-08 15:24 | 57.31695 | 61.42984 | 21664 ft | 409 kts | 29° |
| 2026-05-08 15:25 | 57.34124 | 61.45771 | 22235 ft | 414 kts | 29° |
| 2026-05-08 15:25 | 57.36575 | 61.48625 | 22783 ft | 418 kts | 29° |
| 2026-05-08 15:25 | 57.39053 | 61.51501 | 23378 ft | 421 kts | 29° |
| 2026-05-08 15:25 | 57.41551 | 61.54380 | 23891 ft | 424 kts | 29° |
| 2026-05-08 15:26 | 57.44067 | 61.57263 | 24371 ft | 427 kts | 29° |
| 2026-05-08 15:26 | 57.46602 | 61.60163 | 24862 ft | 429 kts | 29° |
| 2026-05-08 15:26 | 57.49152 | 61.63084 | 25333 ft | 432 kts | 29° |
| 2026-05-08 15:26 | 57.51722 | 61.66016 | 25798 ft | 435 kts | 28° |
| 2026-05-08 15:27 | 57.54277 | 61.68924 | 26266 ft | 437 kts | 28° |
| 2026-05-08 15:27 | 57.56870 | 61.71881 | 26833 ft | 436 kts | 28° |
| 2026-05-08 15:27 | 57.59448 | 61.74825 | 27517 ft | 433 kts | 28° |
| 2026-05-08 15:27 | 57.62003 | 61.77750 | 28216 ft | 430 kts | 28° |
| 2026-05-08 15:28 | 57.64481 | 61.80931 | 28561 ft | 439 kts | 37° |
| 2026-05-08 15:28 | 57.66768 | 61.84847 | 28644 ft | 452 kts | 41° |
| 2026-05-08 15:28 | 57.69031 | 61.89011 | 28762 ft | 461 kts | 42° |
| 2026-05-08 15:28 | 57.71305 | 61.93280 | 29078 ft | 465 kts | 42° |
| 2026-05-08 15:29 | 57.73588 | 61.97575 | 29529 ft | 465 kts | 42° |
| 2026-05-08 15:29 | 57.75849 | 62.01808 | 29945 ft | 467 kts | 42° |
| 2026-05-08 15:29 | 57.78157 | 62.06101 | 30235 ft | 469 kts | 42° |
| 2026-05-08 15:29 | 57.80484 | 62.10410 | 30500 ft | 472 kts | 42° |
| 2026-05-08 15:30 | 57.82829 | 62.14743 | 30775 ft | 474 kts | 42° |
| 2026-05-08 15:30 | 57.85188 | 62.19100 | 31081 ft | 476 kts | 41° |
| 2026-05-08 15:30 | 57.87553 | 62.23475 | 31349 ft | 479 kts | 41° |
| 2026-05-08 15:30 | 57.89926 | 62.27873 | 31727 ft | 478 kts | 42° |
| 2026-05-08 15:31 | 57.92284 | 62.32256 | 32170 ft | 476 kts | 42° |
| 2026-05-08 15:31 | 57.94602 | 62.36573 | 32568 ft | 475 kts | 42° |
| 2026-05-08 15:31 | 57.96950 | 62.40954 | 32913 ft | 475 kts | 42° |
| 2026-05-08 15:31 | 57.99297 | 62.45341 | 33239 ft | 476 kts | 42° |
| 2026-05-08 15:32 | 58.01643 | 62.49735 | 33610 ft | 475 kts | 42° |
| 2026-05-08 15:32 | 58.03984 | 62.54129 | 33985 ft | 474 kts | 42° |
| 2026-05-08 15:32 | 58.06318 | 62.58519 | 34278 ft | 474 kts | 42° |
| 2026-05-08 15:32 | 58.08654 | 62.62926 | 34582 ft | 474 kts | 41° |
| 2026-05-08 15:33 | 58.10991 | 62.67337 | 34809 ft | 476 kts | 41° |
| 2026-05-08 15:33 | 58.13335 | 62.71768 | 35066 ft | 477 kts | 41° |
| 2026-05-08 15:33 | 58.15680 | 62.76211 | 35350 ft | 476 kts | 41° |
| 2026-05-08 15:33 | 58.17986 | 62.80590 | 35608 ft | 477 kts | 41° |
| 2026-05-08 15:34 | 58.20329 | 62.85048 | 35849 ft | 477 kts | 42° |
| 2026-05-08 15:34 | 58.22675 | 62.89521 | 36088 ft | 478 kts | 42° |
| 2026-05-08 15:34 | 58.25019 | 62.93999 | 36326 ft | 479 kts | 42° |
| 2026-05-08 15:34 | 58.27366 | 62.98492 | 36585 ft | 479 kts | 42° |
| 2026-05-08 15:35 | 58.29708 | 63.02985 | 36842 ft | 479 kts | 42° |
| 2026-05-08 15:35 | 58.32064 | 63.07512 | 36891 ft | 483 kts | 42° |
| 2026-05-08 15:35 | 58.36806 | 63.16652 | 36891 ft | 485 kts | 42° |
| 2026-05-08 15:36 | 58.41481 | 63.25707 | 36877 ft | 479 kts | 42° |
| 2026-05-08 15:36 | 58.46141 | 63.34764 | 36892 ft | 478 kts | 42° |
| 2026-05-08 15:37 | 58.50789 | 63.43832 | 36897 ft | 477 kts | 42° |
| 2026-05-08 15:37 | 58.55427 | 63.52917 | 36897 ft | 477 kts | 42° |
| 2026-05-08 15:38 | 58.60031 | 63.61973 | 36911 ft | 478 kts | 42° |
| 2026-05-08 15:38 | 58.64663 | 63.71124 | 36901 ft | 479 kts | 42° |
| 2026-05-08 15:39 | 58.69309 | 63.80334 | 36906 ft | 480 kts | 42° |
| 2026-05-08 15:39 | 58.73962 | 63.89593 | 36903 ft | 482 kts | 42° |
| 2026-05-08 15:40 | 58.78625 | 63.98899 | 36912 ft | 484 kts | 42° |
| 2026-05-08 15:40 | 58.83263 | 64.08195 | 36908 ft | 485 kts | 42° |
| 2026-05-08 15:41 | 58.87938 | 64.17606 | 36913 ft | 486 kts | 42° |
| 2026-05-08 15:41 | 58.92618 | 64.27068 | 36910 ft | 487 kts | 42° |
| 2026-05-08 15:42 | 58.97299 | 64.36571 | 36917 ft | 487 kts | 43° |
| 2026-05-08 15:42 | 59.01940 | 64.46032 | 36919 ft | 488 kts | 42° |
| 2026-05-08 15:43 | 59.06609 | 64.55591 | 36923 ft | 487 kts | 43° |
| 2026-05-08 15:43 | 59.11266 | 64.65166 | 36923 ft | 487 kts | 43° |
| 2026-05-08 15:44 | 59.15912 | 64.74760 | 36928 ft | 487 kts | 43° |
| 2026-05-08 15:44 | 59.20551 | 64.84379 | 36935 ft | 487 kts | 43° |
| 2026-05-08 15:45 | 59.25157 | 64.93969 | 36941 ft | 487 kts | 42° |
| 2026-05-08 15:45 | 59.29791 | 65.03659 | 36946 ft | 488 kts | 43° |
| 2026-05-08 15:46 | 59.34419 | 65.13379 | 36948 ft | 488 kts | 43° |
| 2026-05-08 15:46 | 59.39039 | 65.23124 | 36953 ft | 488 kts | 43° |
| 2026-05-08 15:47 | 59.43627 | 65.32838 | 36964 ft | 489 kts | 43° |
| 2026-05-08 15:47 | 59.48244 | 65.42656 | 36953 ft | 489 kts | 43° |
| 2026-05-08 15:48 | 59.55159 | 65.57438 | 36961 ft | 489 kts | 43° |
| 2026-05-08 15:49 | 59.59754 | 65.67316 | 36960 ft | 490 kts | 43° |
| 2026-05-08 15:49 | 59.64327 | 65.77188 | 36965 ft | 490 kts | 43° |
| 2026-05-08 15:50 | 59.68920 | 65.87145 | 36980 ft | 490 kts | 43° |
| 2026-05-08 15:50 | 59.73498 | 65.97168 | 36982 ft | 491 kts | 44° |
| 2026-05-08 15:51 | 59.77992 | 66.07394 | 36987 ft | 492 kts | 45° |
| 2026-05-08 15:51 | 59.82437 | 66.17620 | 36973 ft | 492 kts | 45° |
| 2026-05-08 15:52 | 59.86921 | 66.27930 | 36987 ft | 493 kts | 45° |
| 2026-05-08 15:52 | 59.91405 | 66.38262 | 36987 ft | 493 kts | 44° |
| 2026-05-08 15:53 | 59.95890 | 66.48642 | 36994 ft | 494 kts | 45° |
| 2026-05-08 15:53 | 60.00339 | 66.58983 | 36993 ft | 494 kts | 45° |
| 2026-05-08 15:54 | 60.04810 | 66.69429 | 37002 ft | 495 kts | 45° |
| 2026-05-08 15:54 | 60.09278 | 66.79928 | 37027 ft | 495 kts | 45° |
| 2026-05-08 15:55 | 60.13735 | 66.90451 | 37008 ft | 496 kts | 45° |
| 2026-05-08 15:55 | 60.20420 | 67.06324 | 37010 ft | 496 kts | 45° |
| 2026-05-08 15:56 | 60.24842 | 67.16884 | 37010 ft | 496 kts | 45° |
| 2026-05-08 15:56 | 60.29283 | 67.27539 | 37018 ft | 497 kts | 45° |
| 2026-05-08 15:57 | 60.33718 | 67.38227 | 37026 ft | 497 kts | 45° |
| 2026-05-08 15:57 | 60.38148 | 67.48954 | 37018 ft | 497 kts | 45° |
| 2026-05-08 15:58 | 60.42541 | 67.59641 | 37019 ft | 497 kts | 45° |
| 2026-05-08 15:58 | 60.46951 | 67.70421 | 37020 ft | 497 kts | 45° |
| 2026-05-08 15:59 | 60.51353 | 67.81230 | 37022 ft | 497 kts | 45° |
| 2026-05-08 15:59 | 60.55749 | 67.92076 | 37031 ft | 497 kts | 45° |
| 2026-05-08 16:00 | 60.60139 | 68.02957 | 37031 ft | 498 kts | 45° |
| 2026-05-08 16:00 | 60.64485 | 68.13784 | 37040 ft | 497 kts | 46° |
| 2026-05-08 16:01 | 60.68860 | 68.24732 | 37035 ft | 498 kts | 46° |
| 2026-05-08 16:01 | 60.73226 | 68.35706 | 37044 ft | 498 kts | 46° |
| 2026-05-08 16:02 | 60.77600 | 68.46746 | 36463 ft | 503 kts | 46° |
| 2026-05-08 16:02 | 60.79793 | 68.52301 | 35928 ft | 500 kts | 46° |
| 2026-05-08 16:02 | 60.81977 | 68.57850 | 35333 ft | 501 kts | 45° |
| 2026-05-08 16:03 | 60.84137 | 68.63346 | 34643 ft | 502 kts | 45° |
| 2026-05-08 16:03 | 60.86330 | 68.68937 | 33932 ft | 504 kts | 44° |
| 2026-05-08 16:03 | 60.88528 | 68.74557 | 33123 ft | 505 kts | 44° |
| 2026-05-08 16:03 | 60.90725 | 68.80189 | 32375 ft | 505 kts | 44° |
| 2026-05-08 16:04 | 60.92908 | 68.85806 | 31859 ft | 500 kts | 44° |
| 2026-05-08 16:04 | 60.95068 | 68.91377 | 31373 ft | 496 kts | 44° |
| 2026-05-08 16:04 | 60.97207 | 68.96900 | 30860 ft | 491 kts | 44° |
| 2026-05-08 16:04 | 60.99326 | 69.02382 | 30358 ft | 487 kts | 44° |
| 2026-05-08 16:05 | 61.01386 | 69.07919 | 29767 ft | 489 kts | 49° |
| 2026-05-08 16:05 | 61.03054 | 69.13957 | 29197 ft | 493 kts | 59° |
| 2026-05-08 16:05 | 61.04295 | 69.20549 | 28659 ft | 495 kts | 70° |
| 2026-05-08 16:05 | 61.05106 | 69.27446 | 28114 ft | 493 kts | 74° |
| 2026-05-08 16:06 | 61.05824 | 69.34337 | 27579 ft | 489 kts | 75° |
| 2026-05-08 16:06 | 61.06523 | 69.41179 | 27028 ft | 485 kts | 75° |
| 2026-05-08 16:06 | 61.07226 | 69.47958 | 26510 ft | 481 kts | 74° |
| 2026-05-08 16:06 | 61.07942 | 69.54691 | 26016 ft | 477 kts | 74° |
| 2026-05-08 16:07 | 61.08661 | 69.61354 | 25555 ft | 473 kts | 74° |
| 2026-05-08 16:07 | 61.09375 | 69.67941 | 25058 ft | 465 kts | 74° |
| 2026-05-08 16:07 | 61.10066 | 69.74327 | 24378 ft | 459 kts | 74° |
| 2026-05-08 16:07 | 61.10759 | 69.80752 | 23597 ft | 456 kts | 74° |
| 2026-05-08 16:08 | 61.11436 | 69.87070 | 23060 ft | 444 kts | 75° |
| 2026-05-08 16:08 | 61.12099 | 69.93284 | 22544 ft | 441 kts | 75° |
| 2026-05-08 16:08 | 61.12754 | 69.99457 | 22058 ft | 438 kts | 75° |
| 2026-05-08 16:08 | 61.13398 | 70.05592 | 21615 ft | 435 kts | 75° |
| 2026-05-08 16:09 | 61.14006 | 70.11680 | 21358 ft | 430 kts | 76° |
| 2026-05-08 16:09 | 61.14397 | 70.15694 | 21134 ft | 429 kts | 76° |
| 2026-05-08 16:09 | 61.15172 | 70.23772 | 20563 ft | 426 kts | 76° |
| 2026-05-08 16:09 | 61.15738 | 70.29687 | 20110 ft | 424 kts | 76° |
| 2026-05-08 16:10 | 61.16309 | 70.35666 | 19635 ft | 423 kts | 76° |
| 2026-05-08 16:10 | 61.16879 | 70.41633 | 19156 ft | 422 kts | 77° |
| 2026-05-08 16:10 | 61.17446 | 70.47587 | 18684 ft | 420 kts | 77° |
| 2026-05-08 16:10 | 61.18008 | 70.53519 | 18196 ft | 419 kts | 77° |
| 2026-05-08 16:11 | 61.18566 | 70.59428 | 17687 ft | 417 kts | 77° |
| 2026-05-08 16:11 | 61.19117 | 70.65305 | 17194 ft | 414 kts | 77° |
| 2026-05-08 16:11 | 61.19664 | 70.71153 | 16729 ft | 411 kts | 77° |
| 2026-05-08 16:11 | 61.20202 | 70.76947 | 16277 ft | 408 kts | 77° |
| 2026-05-08 16:12 | 61.20730 | 70.82636 | 15825 ft | 405 kts | 77° |
| 2026-05-08 16:12 | 61.21257 | 70.88356 | 15389 ft | 403 kts | 77° |
| 2026-05-08 16:12 | 61.21777 | 70.94045 | 14937 ft | 401 kts | 78° |
| 2026-05-08 16:12 | 61.22266 | 70.99687 | 14616 ft | 394 kts | 78° |
| 2026-05-08 16:13 | 61.22729 | 71.05273 | 14205 ft | 392 kts | 78° |
| 2026-05-08 16:13 | 61.23185 | 71.10837 | 13775 ft | 390 kts | 79° |
| 2026-05-08 16:13 | 61.23637 | 71.16374 | 13281 ft | 388 kts | 79° |
| 2026-05-08 16:13 | 61.24085 | 71.21868 | 12821 ft | 384 kts | 79° |
| 2026-05-08 16:14 | 61.24529 | 71.27315 | 12378 ft | 381 kts | 79° |
| 2026-05-08 16:14 | 61.24967 | 71.32709 | 11940 ft | 376 kts | 79° |
| 2026-05-08 16:14 | 61.25398 | 71.38035 | 11530 ft | 372 kts | 79° |
| 2026-05-08 16:14 | 61.25817 | 71.43233 | 11107 ft | 367 kts | 79° |
| 2026-05-08 16:15 | 61.26233 | 71.48427 | 10706 ft | 363 kts | 79° |
| 2026-05-08 16:15 | 61.26640 | 71.53535 | 10463 ft | 352 kts | 79° |
| 2026-05-08 16:15 | 61.27032 | 71.58472 | 10339 ft | 340 kts | 79° |
| 2026-05-08 16:15 | 61.27412 | 71.63241 | 10204 ft | 329 kts | 79° |
| 2026-05-08 16:16 | 61.27772 | 71.67823 | 10063 ft | 314 kts | 79° |
| 2026-05-08 16:16 | 61.28117 | 71.72238 | 9833 ft | 308 kts | 79° |
| 2026-05-08 16:16 | 61.28469 | 71.76611 | 9545 ft | 305 kts | 78° |
| 2026-05-08 16:16 | 61.28866 | 71.80922 | 9277 ft | 302 kts | 77° |
| 2026-05-08 16:17 | 61.29274 | 71.85198 | 8985 ft | 301 kts | 77° |
| 2026-05-08 16:17 | 61.29543 | 71.88017 | 8757 ft | 300 kts | 77° |
| 2026-05-08 16:17 | 61.30074 | 71.93633 | 8264 ft | 297 kts | 78° |
| 2026-05-08 16:17 | 61.30466 | 71.97827 | 7898 ft | 294 kts | 78° |
| 2026-05-08 16:18 | 61.30851 | 72.01991 | 7537 ft | 292 kts | 79° |
| 2026-05-08 16:18 | 61.31231 | 72.06126 | 7176 ft | 290 kts | 79° |
| 2026-05-08 16:18 | 61.31555 | 72.10245 | 6817 ft | 288 kts | 84° |
| 2026-05-08 16:18 | 61.31724 | 72.14378 | 6440 ft | 286 kts | 87° |
| 2026-05-08 16:19 | 61.31851 | 72.18496 | 5975 ft | 285 kts | 87° |
| 2026-05-08 16:19 | 61.31973 | 72.22596 | 5445 ft | 282 kts | 87° |
| 2026-05-08 16:19 | 61.32096 | 72.26596 | 4939 ft | 279 kts | 87° |
| 2026-05-08 16:19 | 61.32225 | 72.30611 | 4409 ft | 277 kts | 87° |
| 2026-05-08 16:20 | 61.32355 | 72.34585 | 3885 ft | 273 kts | 87° |
| 2026-05-08 16:20 | 61.32486 | 72.38509 | 3373 ft | 270 kts | 87° |
| 2026-05-08 16:20 | 61.32616 | 72.42385 | 2849 ft | 267 kts | 87° |
| 2026-05-08 16:20 | 61.32744 | 72.46211 | 2323 ft | 263 kts | 86° |
| 2026-05-08 16:21 | 61.32868 | 72.49938 | 2034 ft | 251 kts | 86° |
| 2026-05-08 16:21 | 61.32984 | 72.53421 | 1959 ft | 232 kts | 86° |
| 2026-05-08 16:21 | 61.33090 | 72.56606 | 1948 ft | 217 kts | 86° |
| 2026-05-08 16:21 | 61.33194 | 72.59764 | 1979 ft | 222 kts | 86° |
| 2026-05-08 16:22 | 61.33300 | 72.63011 | 1984 ft | 226 kts | 86° |
| 2026-05-08 16:22 | 61.33407 | 72.66300 | 1970 ft | 228 kts | 86° |
| 2026-05-08 16:22 | 61.33513 | 72.69601 | 1983 ft | 229 kts | 86° |
| 2026-05-08 16:22 | 61.33620 | 72.72918 | 1972 ft | 230 kts | 86° |
| 2026-05-08 16:23 | 61.33725 | 72.76237 | 1980 ft | 230 kts | 86° |
| 2026-05-08 16:23 | 61.33832 | 72.79561 | 1981 ft | 230 kts | 86° |
| 2026-05-08 16:23 | 61.33936 | 72.82891 | 1979 ft | 231 kts | 86° |
| 2026-05-08 16:23 | 61.34038 | 72.86182 | 1965 ft | 231 kts | 86° |
| 2026-05-08 16:24 | 61.34147 | 72.89513 | 1972 ft | 230 kts | 84° |
| 2026-05-08 16:24 | 61.34290 | 72.92832 | 1965 ft | 229 kts | 86° |
| 2026-05-08 16:24 | 61.34346 | 72.96075 | 1978 ft | 216 kts | 89° |
| 2026-05-08 16:24 | 61.34353 | 72.99077 | 1967 ft | 198 kts | 90° |
| 2026-05-08 16:25 | 61.34351 | 73.01829 | 1954 ft | 184 kts | 90° |
| 2026-05-08 16:25 | 61.34349 | 73.04504 | 1963 ft | 185 kts | 90° |
| 2026-05-08 16:25 | 61.34348 | 73.07155 | 1978 ft | 181 kts | 90° |
| 2026-05-08 16:25 | 61.34348 | 73.09697 | 1976 ft | 176 kts | 90° |
| 2026-05-08 16:26 | 61.34348 | 73.12251 | 1975 ft | 178 kts | 90° |
| 2026-05-08 16:26 | 61.34349 | 73.14793 | 2011 ft | 168 kts | 90° |
| 2026-05-08 16:26 | 61.34350 | 73.17108 | 1985 ft | 151 kts | 90° |
| 2026-05-08 16:26 | 61.34351 | 73.19175 | 1966 ft | 135 kts | 90° |
| 2026-05-08 16:27 | 61.34333 | 73.21141 | 1909 ft | 138 kts | 91° |
| 2026-05-08 16:27 | 61.34326 | 73.23134 | 1692 ft | 135 kts | 89° |
| 2026-05-08 16:27 | 61.34345 | 73.25072 | 1427 ft | 132 kts | 88° |
| 2026-05-08 16:27 | 61.34345 | 73.26924 | 1259 ft | 128 kts | 90° |
| 2026-05-08 16:28 | 61.34344 | 73.28803 | 1074 ft | 131 kts | 89° |
| 2026-05-08 16:28 | 61.34352 | 73.30699 | 917 ft | 132 kts | 88° |
| 2026-05-08 16:28 | 61.34358 | 73.32606 | 756 ft | 133 kts | 88° |
| 2026-05-08 16:28 | 61.34368 | 73.34540 | 541 ft | 133 kts | 88° |
| 2026-05-08 16:29 | 61.34374 | 73.36474 | 332 ft | 134 kts | 87° |
| 2026-05-08 16:29 | 61.34383 | 73.38383 | 208 ft | 125 kts | 88° |
| 2026-05-08 16:29 | 61.34388 | 73.39971 | 210 ft | 90 kts | 90° |
| 2026-05-08 16:29 | 61.34390 | 73.40820 | 213 ft | 11 kts | 89° |
| 2026-05-08 16:30 | 61.34351 | 73.40944 | 210 ft | 12 kts | 159° |
| 2026-05-08 16:30 | 61.34305 | 73.40946 | 212 ft | 9 kts | 180° |
| 2026-05-08 16:30 | 61.34269 | 73.40947 | 213 ft | 0 kts | 180° |
| 2026-05-08 16:31 | 61.34239 | 73.40947 | 207 ft | 9 kts | 180° |
| 2026-05-08 16:31 | 61.34184 | 73.40886 | 208 ft | 10 kts | 254° |
| 2026-05-08 16:31 | 61.34182 | 73.40796 | 207 ft | 7 kts | 269° |
| 2026-05-08 16:31 | 61.34181 | 73.40672 | 207 ft | 4 kts | 269° |
| 2026-05-08 16:32 | 61.34181 | 73.40561 | 207 ft | 10 kts | 269° |
| 2026-05-08 16:32 | 61.34164 | 73.40462 | 214 ft | 8 kts | 212° |
| 2026-05-08 16:32 | 61.34134 | 73.40454 | 207 ft | 2 kts | 180° |
| 2026-05-08 16:32 | 61.34122 | 73.40454 | 207 ft | 0 kts | 180° |